createdAt,value
2022-09-23T00:00:11.062Z,100170.09
2022-09-23T00:01:11.252Z,100170.24
2022-09-23T00:02:11.124Z,100174.66
2022-09-23T00:03:11.057Z,100177.95
2022-09-23T00:04:11.059Z,100178.70
2022-09-23T00:05:11.063Z,100181.87
2022-09-23T00:06:14.058Z,100184.54
2022-09-23T00:07:11.062Z,100180.94
2022-09-23T00:08:11.068Z,100183.98
2022-09-23T00:09:11.062Z,100185.85
2022-09-23T00:10:11.058Z,100186.51
2022-09-23T00:11:15.066Z,100183.49
2022-09-23T00:12:11.063Z,100183.44
2022-09-23T00:13:11.060Z,100177.49
2022-09-23T00:14:11.062Z,100176.61
2022-09-23T00:15:11.070Z,100174.60
2022-09-23T00:16:16.182Z,100179.86
2022-09-23T00:17:11.135Z,100179.23
2022-09-23T00:18:11.071Z,100179.01
2022-09-23T00:19:11.061Z,100177.20
2022-09-23T00:20:11.067Z,100178.19
2022-09-23T00:21:11.074Z,100181.06
2022-09-23T00:22:11.059Z,100177.63
2022-09-23T00:23:11.054Z,100179.58
2022-09-23T00:24:11.057Z,100179.86
2022-09-23T00:25:11.059Z,100180.33
2022-09-23T00:26:11.055Z,100181.59
2022-09-23T00:27:11.059Z,100180.54
2022-09-23T00:28:11.065Z,100181.36
2022-09-23T00:29:11.059Z,100180.97
2022-09-23T00:30:11.061Z,100179.18
2022-09-23T00:31:11.156Z,100180.95
2022-09-23T00:32:11.060Z,100180.88
2022-09-23T00:33:11.056Z,100181.20
2022-09-23T00:34:12.060Z,100184.19
2022-09-23T00:35:11.061Z,100181.33
2022-09-23T00:36:11.074Z,100179.57
2022-09-23T00:37:11.059Z,100178.71
2022-09-23T00:38:11.061Z,100175.88
2022-09-23T00:39:11.058Z,100174.80
2022-09-23T00:40:11.072Z,100174.55
2022-09-23T00:41:11.062Z,100172.41
2022-09-23T00:42:18.062Z,100172.73
2022-09-23T00:43:13.059Z,100172.67
2022-09-23T00:44:19.073Z,100171.11
2022-09-23T00:45:12.061Z,100169.90
2022-09-23T00:46:13.114Z,100170.61
2022-09-23T00:47:19.060Z,100165.00
2022-09-23T00:48:19.068Z,100166.15
2022-09-23T00:49:19.061Z,100169.85
2022-09-23T00:50:21.059Z,100166.15
2022-09-23T00:51:12.086Z,100167.59
2022-09-23T00:52:14.063Z,100169.46
2022-09-23T00:53:14.061Z,100168.20
2022-09-23T00:54:11.061Z,100170.52
2022-09-23T00:55:17.080Z,100169.03
2022-09-23T00:56:12.070Z,100166.20
2022-09-23T00:57:11.063Z,100166.12
2022-09-23T00:58:14.065Z,100165.45
2022-09-23T00:59:11.062Z,100166.36
2022-09-23T01:00:11.064Z,100165.01
2022-09-23T01:01:11.132Z,100167.93
2022-09-23T01:02:11.155Z,100165.19
2022-09-23T01:03:11.071Z,100167.88
2022-09-23T01:04:11.061Z,100168.10
2022-09-23T01:05:11.066Z,100167.14
2022-09-23T01:06:11.069Z,100167.97
2022-09-23T01:07:11.065Z,100163.84
2022-09-23T01:08:11.060Z,100163.14
2022-09-23T01:09:11.066Z,100165.05
2022-09-23T01:10:11.064Z,100167.77
2022-09-23T01:11:23.078Z,100166.51
2022-09-23T01:12:19.066Z,100166.13
2022-09-23T01:13:19.065Z,100165.12
2022-09-23T01:14:19.072Z,100169.66
2022-09-23T01:15:19.063Z,100171.58
2022-09-23T01:16:16.151Z,100175.26
2022-09-23T01:17:19.072Z,100174.99
2022-09-23T01:18:19.066Z,100172.05
2022-09-23T01:19:21.067Z,100175.82
2022-09-23T01:20:19.064Z,100171.14
2022-09-23T01:21:21.056Z,100173.08
2022-09-23T01:22:19.065Z,100173.07
2022-09-23T01:23:19.064Z,100172.26
2022-09-23T01:24:19.069Z,100169.72
2022-09-23T01:25:19.061Z,100168.06
2022-09-23T01:26:19.059Z,100168.98
2022-09-23T01:27:19.060Z,100169.99
2022-09-23T01:28:19.060Z,100170.85
2022-09-23T01:29:19.069Z,100170.74
2022-09-23T01:30:18.063Z,100168.56
2022-09-23T01:31:18.112Z,100167.00
2022-09-23T01:32:21.058Z,100170.36
2022-09-23T01:33:19.063Z,100171.21
2022-09-23T01:34:21.064Z,100170.75
2022-09-23T01:35:19.074Z,100174.12
2022-09-23T01:36:21.063Z,100170.60
2022-09-23T01:37:19.060Z,100173.27
2022-09-23T01:38:19.063Z,100173.27
2022-09-23T01:39:19.066Z,100172.69
2022-09-23T01:40:23.097Z,100179.02
2022-09-23T01:41:21.069Z,100176.93
2022-09-23T01:42:21.065Z,100171.75
2022-09-23T01:43:21.070Z,100174.62
2022-09-23T01:44:13.061Z,100172.42
2022-09-23T01:45:16.068Z,100173.72
2022-09-23T01:46:19.065Z,100170.48
2022-09-23T01:47:17.065Z,100169.10
2022-09-23T01:48:22.166Z,100169.53
2022-09-23T01:49:17.059Z,100167.00
2022-09-23T01:50:26.063Z,100165.73
2022-09-23T01:51:21.066Z,100165.07
2022-09-23T01:52:18.072Z,100163.70
2022-09-23T01:53:19.064Z,100164.84
2022-09-23T01:54:15.063Z,100165.57
2022-09-23T01:55:18.061Z,100166.73
2022-09-23T01:56:17.064Z,100166.63
2022-09-23T01:57:19.076Z,100166.52
2022-09-23T01:58:17.068Z,100164.63
2022-09-23T01:59:21.064Z,100160.74
2022-09-23T02:00:16.066Z,100168.01
2022-09-23T02:01:14.114Z,100162.11
2022-09-23T02:02:17.114Z,100162.99
2022-09-23T02:03:18.066Z,100164.05
2022-09-23T02:04:21.065Z,100164.55
2022-09-23T02:05:17.166Z,100164.87
2022-09-23T02:06:21.070Z,100165.97
2022-09-23T02:07:18.074Z,100162.53
2022-09-23T02:08:19.067Z,100162.21
2022-09-23T02:09:14.068Z,100161.38
2022-09-23T02:10:20.069Z,100165.14
2022-09-23T02:11:12.067Z,100164.42
2022-09-23T02:12:13.075Z,100161.39
2022-09-23T02:13:16.075Z,100162.11
2022-09-23T02:14:20.064Z,100162.43
2022-09-23T02:15:16.067Z,100161.45
2022-09-23T02:16:19.099Z,100158.33
2022-09-23T02:17:12.077Z,100158.22
2022-09-23T02:18:15.071Z,100160.31
2022-09-23T02:19:19.069Z,100156.28
2022-09-23T02:20:12.069Z,100159.47
2022-09-23T02:21:11.059Z,100158.98
2022-09-23T02:22:20.054Z,100156.65
2022-09-23T02:23:19.060Z,100157.27
2022-09-23T02:24:18.065Z,100157.65
2022-09-23T02:25:11.065Z,100154.91
2022-09-23T02:26:16.057Z,100154.98
2022-09-23T02:27:19.059Z,100154.80
2022-09-23T02:28:21.062Z,100157.89
2022-09-23T02:29:20.068Z,100154.52
2022-09-23T02:30:17.120Z,100156.11
2022-09-23T02:31:19.061Z,100158.21
2022-09-23T02:32:19.059Z,100162.12
2022-09-23T02:33:15.061Z,100159.43
2022-09-23T02:34:21.060Z,100157.31
2022-09-23T02:35:19.058Z,100160.53
2022-09-23T02:36:21.056Z,100158.99
2022-09-23T02:37:19.061Z,100161.08
2022-09-23T02:38:21.068Z,100164.21
2022-09-23T02:39:12.067Z,100163.86
2022-09-23T02:40:21.111Z,100162.36
2022-09-23T02:41:17.060Z,100163.74
2022-09-23T02:42:18.062Z,100164.84
2022-09-23T02:43:19.068Z,100163.07
2022-09-23T02:44:16.070Z,100164.61
2022-09-23T02:45:11.061Z,100166.00
2022-09-23T02:46:11.120Z,100165.78
2022-09-23T02:47:11.068Z,100164.83
2022-09-23T02:48:16.060Z,100165.05
2022-09-23T02:49:18.058Z,100163.19
2022-09-23T02:50:11.063Z,100160.26
2022-09-23T02:51:11.069Z,100159.75
2022-09-23T02:52:11.060Z,100160.81
2022-09-23T02:53:11.068Z,100158.38
2022-09-23T02:54:12.070Z,100162.73
2022-09-23T02:55:11.064Z,100164.20
2022-09-23T02:56:20.065Z,100163.28
2022-09-23T02:57:11.062Z,100166.75
2022-09-23T02:58:12.064Z,100164.88
2022-09-23T02:59:11.061Z,100169.19
2022-09-23T03:00:11.063Z,100167.48
2022-09-23T03:01:21.114Z,100167.14
2022-09-23T03:02:19.088Z,100169.41
2022-09-23T03:03:19.063Z,100168.74
2022-09-23T03:04:21.066Z,100170.27
2022-09-23T03:05:19.067Z,100169.67
2022-09-23T03:06:19.073Z,100172.93
2022-09-23T03:07:21.067Z,100173.48
2022-09-23T03:08:19.067Z,100171.49
2022-09-23T03:09:19.067Z,100172.31
2022-09-23T03:10:19.073Z,100170.12
2022-09-23T03:11:11.072Z,100174.62
2022-09-23T03:12:21.063Z,100170.89
2022-09-23T03:13:20.087Z,100173.49
2022-09-23T03:14:21.065Z,100172.15
2022-09-23T03:15:19.072Z,100169.97
2022-09-23T03:16:19.137Z,100171.72
2022-09-23T03:17:18.068Z,100172.32
2022-09-23T03:18:21.064Z,100171.62
2022-09-23T03:19:23.067Z,100170.09
2022-09-23T03:20:19.066Z,100169.97
2022-09-23T03:21:19.069Z,100175.48
2022-09-23T03:22:21.064Z,100173.78
2022-09-23T03:23:13.062Z,100170.45
2022-09-23T03:24:11.061Z,100171.11
2022-09-23T03:25:18.062Z,100176.12
2022-09-23T03:26:15.069Z,100176.90
2022-09-23T03:27:16.079Z,100174.04
2022-09-23T03:28:11.061Z,100174.79
2022-09-23T03:29:11.063Z,100179.35
2022-09-23T03:30:11.069Z,100176.05
2022-09-23T03:31:11.067Z,100181.89
2022-09-23T03:32:12.065Z,100177.00
2022-09-23T03:33:12.069Z,100177.16
2022-09-23T03:34:17.074Z,100179.45
2022-09-23T03:35:11.062Z,100179.22
2022-09-23T03:36:17.066Z,100176.86
2022-09-23T03:37:17.073Z,100179.78
2022-09-23T03:38:16.064Z,100184.98
2022-09-23T03:39:12.062Z,100188.50
2022-09-23T03:40:19.102Z,100186.18
2022-09-23T03:41:12.072Z,100189.83
2022-09-23T03:42:17.121Z,100185.86
2022-09-23T03:43:11.065Z,100187.46
2022-09-23T03:44:11.065Z,100188.71
2022-09-23T03:45:14.066Z,100189.43
2022-09-23T03:46:11.119Z,100183.44
2022-09-23T03:47:11.066Z,100186.68
2022-09-23T03:48:11.072Z,100187.68
2022-09-23T03:49:16.065Z,100185.02
2022-09-23T03:50:11.065Z,100181.94
2022-09-23T03:51:21.069Z,100184.64
2022-09-23T03:52:11.075Z,100181.55
2022-09-23T03:53:11.065Z,100182.00
2022-09-23T03:54:11.063Z,100180.61
2022-09-23T03:55:11.063Z,100184.33
2022-09-23T03:56:11.067Z,100180.66
2022-09-23T03:57:11.063Z,100182.45
2022-09-23T03:58:11.065Z,100184.16
2022-09-23T03:59:11.072Z,100186.01
2022-09-23T04:00:11.065Z,100186.62
2022-09-23T04:01:11.261Z,100187.17
2022-09-23T04:02:11.136Z,100185.16
2022-09-23T04:03:11.852Z,100189.40
2022-09-23T04:04:11.066Z,100187.50
2022-09-23T04:05:11.068Z,100188.77
2022-09-23T04:06:11.068Z,100189.34
2022-09-23T04:07:11.065Z,100191.18
2022-09-23T04:08:11.067Z,100188.62
2022-09-23T04:09:11.074Z,100191.30
2022-09-23T04:10:11.065Z,100193.11
2022-09-23T04:11:11.068Z,100191.45
2022-09-23T04:12:13.069Z,100189.08
2022-09-23T04:13:11.072Z,100192.87
2022-09-23T04:14:11.066Z,100188.73
2022-09-23T04:15:11.070Z,100188.97
2022-09-23T04:16:11.102Z,100188.46
2022-09-23T04:17:11.067Z,100190.86
2022-09-23T04:18:11.071Z,100189.83
2022-09-23T04:19:11.873Z,100188.74
2022-09-23T04:20:11.069Z,100191.04
2022-09-23T04:21:11.063Z,100188.68
2022-09-23T04:22:11.063Z,100186.62
2022-09-23T04:23:11.069Z,100186.95
2022-09-23T04:24:11.064Z,100180.68
2022-09-23T04:25:11.069Z,100186.86
2022-09-23T04:26:11.072Z,100185.60
2022-09-23T04:27:11.068Z,100181.23
2022-09-23T04:28:11.063Z,100185.92
2022-09-23T04:29:11.068Z,100182.48
2022-09-23T04:30:11.065Z,100182.65
2022-09-23T04:31:11.136Z,100183.03
2022-09-23T04:32:11.066Z,100182.37
2022-09-23T04:33:11.067Z,100185.00
2022-09-23T04:34:11.063Z,100184.68
2022-09-23T04:35:11.077Z,100183.02
2022-09-23T04:36:11.073Z,100183.82
2022-09-23T04:37:11.067Z,100184.64
2022-09-23T04:38:11.070Z,100186.16
2022-09-23T04:39:11.069Z,100182.86
2022-09-23T04:40:11.097Z,100182.05
2022-09-23T04:41:11.068Z,100183.65
2022-09-23T04:42:11.066Z,100185.99
2022-09-23T04:43:13.515Z,100180.54
2022-09-23T04:44:11.065Z,100183.24
2022-09-23T04:45:11.068Z,100180.47
2022-09-23T04:46:11.076Z,100182.66
2022-09-23T04:47:11.065Z,100178.81
2022-09-23T04:48:11.070Z,100183.12
2022-09-23T04:49:11.113Z,100179.38
2022-09-23T04:50:11.069Z,100180.69
2022-09-23T04:51:14.071Z,100178.50
2022-09-23T04:52:11.067Z,100181.64
2022-09-23T04:53:11.071Z,100178.80
2022-09-23T04:54:11.068Z,100177.80
2022-09-23T04:55:11.416Z,100178.80
2022-09-23T04:56:14.077Z,100178.52
2022-09-23T04:57:11.073Z,100175.70
2022-09-23T04:58:11.065Z,100176.41
2022-09-23T04:59:11.199Z,100175.13
2022-09-23T05:00:11.070Z,100177.10
2022-09-23T05:01:15.144Z,100175.81
2022-09-23T05:02:11.109Z,100175.91
2022-09-23T05:03:11.077Z,100172.36
2022-09-23T05:04:11.068Z,100172.14
2022-09-23T05:05:11.069Z,100174.17
2022-09-23T05:06:11.071Z,100172.90
2022-09-23T05:07:11.067Z,100171.75
2022-09-23T05:08:11.070Z,100174.59
2022-09-23T05:09:13.072Z,100171.77
2022-09-23T05:10:11.068Z,100169.54
2022-09-23T05:11:11.072Z,100167.57
2022-09-23T05:12:11.079Z,100164.54
2022-09-23T05:13:11.073Z,100165.26
2022-09-23T05:14:11.075Z,100168.17
2022-09-23T05:15:11.072Z,100166.96
2022-09-23T05:16:11.140Z,100169.75
2022-09-23T05:17:11.069Z,100168.73
2022-09-23T05:18:11.074Z,100170.28
2022-09-23T05:19:11.127Z,100169.21
2022-09-23T05:20:11.074Z,100171.68
2022-09-23T05:21:11.054Z,100172.89
2022-09-23T05:22:11.061Z,100174.05
2022-09-23T05:23:11.059Z,100173.77
2022-09-23T05:24:11.059Z,100179.25
2022-09-23T05:25:11.057Z,100178.91
2022-09-23T05:26:13.061Z,100178.09
2022-09-23T05:27:13.063Z,100182.49
2022-09-23T05:28:11.059Z,100183.26
2022-09-23T05:29:11.068Z,100179.94
2022-09-23T05:30:11.058Z,100180.71
2022-09-23T05:31:19.569Z,100182.09
2022-09-23T05:32:13.850Z,100186.15
2022-09-23T05:33:11.065Z,100185.54
2022-09-23T05:34:11.058Z,100185.86
2022-09-23T05:35:11.061Z,100184.40
2022-09-23T05:36:11.068Z,100182.81
2022-09-23T05:37:11.059Z,100184.13
2022-09-23T05:38:11.057Z,100187.10
2022-09-23T05:39:11.164Z,100186.27
2022-09-23T05:40:11.112Z,100182.35
2022-09-23T05:41:13.056Z,100188.47
2022-09-23T05:42:11.060Z,100192.20
2022-09-23T05:43:11.062Z,100189.79
2022-09-23T05:44:11.060Z,100193.14
2022-09-23T05:45:11.065Z,100191.43
2022-09-23T05:46:12.152Z,100192.70
2022-09-23T05:47:11.061Z,100198.16
2022-09-23T05:48:11.059Z,100202.20
2022-09-23T05:49:11.168Z,100203.49
2022-09-23T05:50:11.062Z,100206.62
2022-09-23T05:51:16.062Z,100204.51
2022-09-23T05:52:11.062Z,100207.11
2022-09-23T05:53:11.065Z,100202.86
2022-09-23T05:54:11.060Z,100202.96
2022-09-23T05:55:11.063Z,100207.25
2022-09-23T05:56:11.107Z,100207.52
2022-09-23T05:57:11.065Z,100205.28
2022-09-23T05:58:11.059Z,100207.57
2022-09-23T05:59:11.066Z,100205.46
2022-09-23T06:00:11.065Z,100204.83
2022-09-23T06:01:15.060Z,100205.55
2022-09-23T06:02:11.155Z,100206.92
2022-09-23T06:03:15.214Z,100206.64
2022-09-23T06:04:13.068Z,100206.54
2022-09-23T06:05:11.061Z,100208.04
2022-09-23T06:06:13.070Z,100213.17
2022-09-23T06:07:11.070Z,100213.47
2022-09-23T06:08:11.062Z,100214.12
2022-09-23T06:09:12.064Z,100215.61
2022-09-23T06:10:11.074Z,100214.70
2022-09-23T06:11:12.068Z,100217.03
2022-09-23T06:12:11.066Z,100215.20
2022-09-23T06:13:11.067Z,100214.99
2022-09-23T06:14:13.065Z,100218.06
2022-09-23T06:15:11.064Z,100218.88
2022-09-23T06:16:14.154Z,100219.99
2022-09-23T06:17:11.073Z,100220.46
2022-09-23T06:18:11.063Z,100218.75
2022-09-23T06:19:11.069Z,100218.59
2022-09-23T06:20:11.073Z,100220.70
2022-09-23T06:21:11.061Z,100217.98
2022-09-23T06:22:11.061Z,100219.93
2022-09-23T06:23:12.062Z,100222.38
2022-09-23T06:24:15.792Z,100223.94
2022-09-23T06:25:13.084Z,100223.78
2022-09-23T06:26:11.061Z,100227.49
2022-09-23T06:27:11.068Z,100233.34
2022-09-23T06:28:15.059Z,100232.71
2022-09-23T06:29:13.062Z,100232.08
2022-09-23T06:30:11.065Z,100233.56
2022-09-23T06:31:16.095Z,100235.84
2022-09-23T06:32:11.061Z,100237.47
2022-09-23T06:33:11.063Z,100234.89
2022-09-23T06:34:13.651Z,100239.04
2022-09-23T06:35:24.226Z,100233.84
2022-09-23T06:36:17.685Z,100235.85
2022-09-23T06:37:19.063Z,100237.04
2022-09-23T06:38:13.073Z,100240.14
2022-09-23T06:39:11.063Z,100237.66
2022-09-23T06:40:11.110Z,100242.22
2022-09-23T06:41:11.066Z,100241.09
2022-09-23T06:42:11.065Z,100240.43
2022-09-23T06:43:11.060Z,100241.22
2022-09-23T06:44:11.105Z,100243.23
2022-09-23T06:45:11.063Z,100241.35
2022-09-23T06:46:15.115Z,100241.38
2022-09-23T06:47:11.064Z,100243.90
2022-09-23T06:48:12.075Z,100246.19
2022-09-23T06:49:11.064Z,100245.46
2022-09-23T06:50:11.060Z,100249.41
2022-09-23T06:51:12.064Z,100249.19
2022-09-23T06:52:11.064Z,100256.12
2022-09-23T06:53:11.059Z,100256.69
2022-09-23T06:54:11.230Z,100251.64
2022-09-23T06:55:11.065Z,100256.70
2022-09-23T06:56:11.064Z,100256.70
2022-09-23T06:57:11.062Z,100262.13
2022-09-23T06:58:11.066Z,100261.23
2022-09-23T06:59:11.073Z,100260.92
2022-09-23T07:00:11.062Z,100263.39
2022-09-23T07:01:12.119Z,100264.22
2022-09-23T07:02:13.248Z,100262.86
2022-09-23T07:03:11.065Z,100269.83
2022-09-23T07:04:11.073Z,100270.68
2022-09-23T07:05:11.064Z,100269.18
2022-09-23T07:06:11.068Z,100274.13
2022-09-23T07:07:11.073Z,100270.67
2022-09-23T07:08:11.066Z,100269.36
2022-09-23T07:09:11.078Z,100271.86
2022-09-23T07:10:11.068Z,100272.60
2022-09-23T07:11:11.067Z,100271.77
2022-09-23T07:12:11.065Z,100268.51
2022-09-23T07:13:15.525Z,100270.29
2022-09-23T07:14:13.287Z,100267.76
2022-09-23T07:15:11.066Z,100268.86
2022-09-23T07:16:11.212Z,100269.46
2022-09-23T07:17:11.069Z,100265.86
2022-09-23T07:18:11.066Z,100265.98
2022-09-23T07:19:11.065Z,100268.57
2022-09-23T07:20:11.066Z,100268.34
2022-09-23T07:21:14.066Z,100267.71
2022-09-23T07:22:11.060Z,100269.54
2022-09-23T07:23:11.055Z,100268.79
2022-09-23T07:24:11.059Z,100265.29
2022-09-23T07:25:11.063Z,100265.64
2022-09-23T07:26:11.061Z,100268.32
2022-09-23T07:27:11.059Z,100268.43
2022-09-23T07:28:11.063Z,100269.77
2022-09-23T07:29:14.058Z,100272.30
2022-09-23T07:30:21.138Z,100269.61
2022-09-23T07:31:13.562Z,100271.93
2022-09-23T07:32:13.662Z,100271.35
2022-09-23T07:33:24.795Z,100272.29
2022-09-23T07:34:13.074Z,100272.84
2022-09-23T07:35:11.069Z,100275.71
2022-09-23T07:36:11.062Z,100271.39
2022-09-23T07:37:11.056Z,100273.61
2022-09-23T07:38:11.063Z,100273.39
2022-09-23T07:39:11.072Z,100275.96
2022-09-23T07:40:11.112Z,100276.53
2022-09-23T07:41:11.066Z,100274.55
2022-09-23T07:42:11.062Z,100279.79
2022-09-23T07:43:11.059Z,100282.55
2022-09-23T07:44:11.064Z,100279.15
2022-09-23T07:45:11.068Z,100281.71
2022-09-23T07:46:15.130Z,100284.35
2022-09-23T07:47:11.061Z,100284.96
2022-09-23T07:48:11.061Z,100282.18
2022-09-23T07:49:11.065Z,100286.04
2022-09-23T07:50:11.059Z,100290.12
2022-09-23T07:51:18.066Z,100291.20
2022-09-23T07:52:11.070Z,100292.79
2022-09-23T07:53:12.062Z,100293.84
2022-09-23T07:54:13.061Z,100293.68
2022-09-23T07:55:11.065Z,100297.40
2022-09-23T07:56:11.063Z,100297.52
2022-09-23T07:57:11.060Z,100298.65
2022-09-23T07:58:11.067Z,100294.80
2022-09-23T07:59:14.071Z,100298.37
2022-09-23T08:00:11.065Z,100299.08
2022-09-23T08:01:11.151Z,100301.34
2022-09-23T08:02:11.066Z,100298.37
2022-09-23T08:03:11.135Z,100298.99
2022-09-23T08:04:16.067Z,100295.04
2022-09-23T08:05:11.071Z,100296.11
2022-09-23T08:06:13.066Z,100298.77
2022-09-23T08:07:12.061Z,100294.46
2022-09-23T08:08:11.072Z,100297.55
2022-09-23T08:09:11.079Z,100299.20
2022-09-23T08:10:11.065Z,100294.22
2022-09-23T08:11:12.064Z,100297.95
2022-09-23T08:12:16.064Z,100296.21
2022-09-23T08:13:11.069Z,100301.20
2022-09-23T08:14:12.060Z,100296.89
2022-09-23T08:15:11.075Z,100297.82
2022-09-23T08:16:11.125Z,100299.19
2022-09-23T08:17:11.075Z,100299.88
2022-09-23T08:18:11.069Z,100304.93
2022-09-23T08:19:11.077Z,100298.43
2022-09-23T08:20:11.065Z,100307.62
2022-09-23T08:21:11.055Z,100305.82
2022-09-23T08:22:11.063Z,100311.48
2022-09-23T08:23:11.054Z,100314.21
2022-09-23T08:24:13.056Z,100310.85
2022-09-23T08:25:11.072Z,100313.35
2022-09-23T08:26:18.415Z,100311.45
2022-09-23T08:27:13.091Z,100314.61
2022-09-23T08:28:11.056Z,100318.29
2022-09-23T08:29:16.056Z,100317.83
2022-09-23T08:30:11.054Z,100314.55
2022-09-23T08:31:11.143Z,100314.02
2022-09-23T08:32:11.064Z,100312.22
2022-09-23T08:33:11.054Z,100315.77
2022-09-23T08:34:11.058Z,100315.83
2022-09-23T08:35:11.065Z,100315.83
2022-09-23T08:36:11.062Z,100319.63
2022-09-23T08:37:13.059Z,100319.66
2022-09-23T08:38:11.059Z,100326.61
2022-09-23T08:39:12.058Z,100327.55
2022-09-23T08:40:11.112Z,100324.04
2022-09-23T08:41:21.066Z,100324.84
2022-09-23T08:42:21.067Z,100320.65
2022-09-23T08:43:17.059Z,100331.32
2022-09-23T08:44:21.081Z,100330.34
2022-09-23T08:45:15.055Z,100329.57
2022-09-23T08:46:11.108Z,100328.56
2022-09-23T08:47:21.094Z,100330.95
2022-09-23T08:48:14.103Z,100327.78
2022-09-23T08:49:13.058Z,100332.82
2022-09-23T08:50:18.062Z,100326.98
2022-09-23T08:51:20.084Z,100327.89
2022-09-23T08:52:19.060Z,100330.55
2022-09-23T08:53:21.081Z,100328.84
2022-09-23T08:54:11.056Z,100327.79
2022-09-23T08:55:15.066Z,100330.20
2022-09-23T08:56:15.061Z,100329.30
2022-09-23T08:57:19.059Z,100337.16
2022-09-23T08:58:25.372Z,100336.28
2022-09-23T08:59:22.080Z,100336.99
2022-09-23T09:00:18.063Z,100335.01
2022-09-23T09:01:18.098Z,100336.52
2022-09-23T09:02:20.171Z,100333.76
2022-09-23T09:03:19.060Z,100336.01
2022-09-23T09:04:19.062Z,100333.98
2022-09-23T09:05:12.060Z,100336.75
2022-09-23T09:06:16.067Z,100332.11
2022-09-23T09:07:35.695Z,100337.44
2022-09-23T09:08:14.077Z,100334.35
2022-09-23T09:09:23.093Z,100335.22
2022-09-23T09:10:19.063Z,100334.63
2022-09-23T09:11:12.061Z,100333.98
2022-09-23T09:12:18.066Z,100331.62
2022-09-23T09:13:21.063Z,100330.50
2022-09-23T09:14:22.070Z,100325.52
2022-09-23T09:15:21.068Z,100321.90
2022-09-23T09:16:31.676Z,100327.54
2022-09-23T09:17:24.382Z,100320.76
2022-09-23T09:18:20.068Z,100326.19
2022-09-23T09:19:18.066Z,100319.86
2022-09-23T09:20:22.064Z,100320.42
2022-09-23T09:21:15.055Z,100323.73
2022-09-23T09:22:19.053Z,100323.85
2022-09-23T09:23:21.055Z,100324.76
2022-09-23T09:24:18.062Z,100322.89
2022-09-23T09:25:21.056Z,100318.27
2022-09-23T09:26:15.055Z,100320.22
2022-09-23T09:27:12.054Z,100320.25
2022-09-23T09:28:19.064Z,100317.46
2022-09-23T09:29:34.736Z,100319.20
2022-09-23T09:30:15.101Z,100314.71
2022-09-23T09:31:19.106Z,100321.57
2022-09-23T09:32:20.059Z,100323.02
2022-09-23T09:33:15.057Z,100317.51
2022-09-23T09:34:19.058Z,100320.67
2022-09-23T09:35:22.057Z,100321.55
2022-09-23T09:36:20.054Z,100322.18
2022-09-23T09:37:23.058Z,100321.51
2022-09-23T09:38:11.061Z,100319.56
2022-09-23T09:39:14.068Z,100313.82
2022-09-23T09:40:13.123Z,100316.49
2022-09-23T09:41:15.054Z,100315.51
2022-09-23T09:42:22.067Z,100313.12
2022-09-23T09:43:11.066Z,100313.21
2022-09-23T09:44:19.057Z,100314.07
2022-09-23T09:45:21.056Z,100313.03
2022-09-23T09:46:20.137Z,100302.70
2022-09-23T09:47:19.065Z,100310.76
2022-09-23T09:48:17.060Z,100307.51
2022-09-23T09:49:17.057Z,100310.42
2022-09-23T09:50:12.059Z,100307.78
2022-09-23T09:51:21.062Z,100308.89
2022-09-23T09:52:19.067Z,100306.00
2022-09-23T09:53:16.006Z,100307.26
2022-09-23T09:54:16.006Z,100304.80
2022-09-23T09:55:19.008Z,100301.60
2022-09-23T09:56:12.004Z,100305.16
2022-09-23T09:57:19.005Z,100301.23
2022-09-23T09:58:14.003Z,100299.37
2022-09-23T09:59:11.032Z,100302.86
2022-09-23T10:00:19.032Z,100301.26
2022-09-23T10:01:15.052Z,100299.04
2022-09-23T10:02:19.014Z,100300.04
2022-09-23T10:03:20.004Z,100298.39
2022-09-23T10:04:21.066Z,100298.77
2022-09-23T10:05:19.014Z,100301.67
2022-09-23T10:06:22.012Z,100301.22
2022-09-23T10:07:15.004Z,100298.14
2022-09-23T10:08:18.999Z,100296.69
2022-09-23T10:09:17.003Z,100295.45
2022-09-23T10:10:31.984Z,100292.08
2022-09-23T10:11:18.019Z,100295.22
2022-09-23T10:12:18.001Z,100297.45
2022-09-23T10:13:15.006Z,100296.54
2022-09-23T10:14:17.003Z,100295.39
2022-09-23T10:15:19.006Z,100293.09
2022-09-23T10:16:11.003Z,100295.72
2022-09-23T10:17:19.058Z,100294.64
2022-09-23T10:18:19.009Z,100291.37
2022-09-23T10:19:22.004Z,100292.11
2022-09-23T10:20:14.006Z,100291.16
2022-09-23T10:21:10.996Z,100294.08
2022-09-23T10:22:17.999Z,100288.35
2022-09-23T10:23:14.999Z,100291.00
2022-09-23T10:24:14.994Z,100289.58
2022-09-23T10:25:19.997Z,100291.00
2022-09-23T10:26:10.996Z,100283.17
2022-09-23T10:27:11.002Z,100285.62
2022-09-23T10:28:18.993Z,100287.92
2022-09-23T10:29:22.008Z,100284.68
2022-09-23T10:30:19.002Z,100289.39
2022-09-23T10:31:19.026Z,100292.16
2022-09-23T10:32:19.001Z,100290.81
2022-09-23T10:33:18.999Z,100289.26
2022-09-23T10:34:19.004Z,100286.65
2022-09-23T10:35:15.001Z,100286.54
2022-09-23T10:36:14.001Z,100287.77
2022-09-23T10:37:19.000Z,100284.40
2022-09-23T10:38:11.004Z,100284.49
2022-09-23T10:39:15.010Z,100280.55
2022-09-23T10:40:19.033Z,100286.72
2022-09-23T10:41:22.012Z,100287.71
2022-09-23T10:42:23.001Z,100280.68
2022-09-23T10:43:23.007Z,100286.75
2022-09-23T10:44:26.008Z,100287.95
2022-09-23T10:45:22.019Z,100290.86
2022-09-23T10:46:19.051Z,100285.83
2022-09-23T10:47:19.009Z,100280.81
2022-09-23T10:48:22.014Z,100274.31
2022-09-23T10:49:21.005Z,100269.72
2022-09-23T10:50:22.010Z,100271.38
2022-09-23T10:51:22.689Z,100275.96
2022-09-23T10:52:21.057Z,100272.49
2022-09-23T10:53:17.020Z,100270.30
2022-09-23T10:54:19.013Z,100272.40
2022-09-23T10:55:22.013Z,100267.96
2022-09-23T10:56:18.032Z,100273.57
2022-09-23T10:57:23.016Z,100273.32
2022-09-23T10:58:19.015Z,100276.15
2022-09-23T10:59:19.016Z,100276.00
2022-09-23T11:00:22.018Z,100272.85
2022-09-23T11:01:22.052Z,100276.37
2022-09-23T11:02:19.027Z,100272.10
2022-09-23T11:03:21.020Z,100276.83
2022-09-23T11:04:19.129Z,100268.27
2022-09-23T11:05:22.022Z,100268.83
2022-09-23T11:06:19.019Z,100277.62
2022-09-23T11:07:19.028Z,100276.03
2022-09-23T11:08:19.020Z,100270.99
2022-09-23T11:09:19.018Z,100270.97
2022-09-23T11:10:35.375Z,100273.01
2022-09-23T11:11:23.049Z,100271.58
2022-09-23T11:12:19.031Z,100268.47
2022-09-23T11:13:19.023Z,100266.84
2022-09-23T11:14:19.022Z,100263.12
2022-09-23T11:15:22.027Z,100269.38
2022-09-23T11:16:22.073Z,100270.14
2022-09-23T11:17:19.034Z,100268.47
2022-09-23T11:18:22.028Z,100266.02
2022-09-23T11:19:19.030Z,100271.09
2022-09-23T11:20:19.026Z,100267.91
2022-09-23T11:21:19.018Z,100269.17
2022-09-23T11:22:19.025Z,100263.29
2022-09-23T11:23:19.020Z,100264.42
2022-09-23T11:24:19.019Z,100266.18